createdAt,value
2022-11-26T00:02:34.985Z,15.00
2022-11-26T00:07:40.226Z,15.23
2022-11-26T00:12:50.128Z,12.63
2022-11-26T00:17:55.919Z,13.90
2022-11-26T00:23:06.291Z,12.77
2022-11-26T00:28:29.496Z,13.47
2022-11-26T00:33:35.707Z,12.77
2022-11-26T00:38:41.080Z,14.10
2022-11-26T00:43:49.441Z,14.10
2022-11-26T00:48:54.798Z,12.63
2022-11-26T00:54:03.206Z,12.57
2022-11-26T00:59:17.354Z,13.67
2022-11-26T01:04:24.336Z,12.67
2022-11-26T01:09:29.432Z,12.13
2022-11-26T01:14:37.160Z,11.53
2022-11-26T01:19:42.317Z,12.03
2022-11-26T01:24:47.150Z,11.27
2022-11-26T01:29:54.926Z,12.07
2022-11-26T01:34:59.963Z,12.03
2022-11-26T01:40:04.947Z,12.10
2022-11-26T01:45:19.142Z,13.00
2022-11-26T01:50:50.464Z,12.10
2022-11-26T01:55:58.921Z,11.93
2022-11-26T02:01:07.239Z,12.17
2022-11-26T02:06:19.647Z,12.23
2022-11-26T02:11:26.435Z,13.80
2022-11-26T02:16:56.648Z,13.63
2022-11-26T02:22:07.967Z,12.73
2022-11-26T02:27:33.617Z,12.17
2022-11-26T02:32:55.034Z,13.03
2022-11-26T02:38:04.184Z,12.90
2022-11-26T02:43:09.182Z,13.50
2022-11-26T02:48:21.247Z,12.07
2022-11-26T02:53:29.681Z,13.63
2022-11-26T02:58:36.751Z,12.70
2022-11-26T03:03:50.607Z,13.27
2022-11-26T03:08:57.415Z,13.50
2022-11-26T03:14:02.319Z,13.00
2022-11-26T03:19:09.922Z,13.03
2022-11-26T03:24:14.758Z,13.80
2022-11-26T03:29:19.660Z,12.07
2022-11-26T03:34:27.402Z,13.43
2022-11-26T03:39:32.324Z,12.67
2022-11-26T03:44:37.477Z,13.63
2022-11-26T03:49:45.226Z,12.77
2022-11-26T03:54:50.158Z,12.60
2022-11-26T03:59:55.103Z,12.93
2022-11-26T04:05:02.634Z,11.13
2022-11-26T04:10:08.655Z,11.87
2022-11-26T04:15:14.109Z,11.70
2022-11-26T04:20:21.848Z,13.63
2022-11-26T04:25:26.767Z,11.97
2022-11-26T04:30:31.836Z,13.90
2022-11-26T04:35:40.227Z,13.80
2022-11-26T04:40:45.180Z,13.40
2022-11-26T04:45:50.270Z,14.77
2022-11-26T04:50:57.888Z,14.97
2022-11-26T04:56:03.055Z,16.47
2022-11-26T05:01:08.601Z,16.00
2022-11-26T05:06:16.396Z,16.10
2022-11-26T05:11:21.365Z,16.60
2022-11-26T05:16:26.377Z,16.17
2022-11-26T05:21:34.169Z,16.33
2022-11-26T05:26:39.171Z,17.00
2022-11-26T05:31:44.329Z,17.73
2022-11-26T05:36:51.934Z,18.50
2022-11-26T05:41:58.732Z,16.53
2022-11-26T05:47:03.797Z,17.43
2022-11-26T05:52:11.397Z,18.07
2022-11-26T05:57:16.264Z,17.17
2022-11-26T06:02:21.798Z,17.33
2022-11-26T06:07:29.505Z,18.40
2022-11-26T06:12:34.495Z,17.37
2022-11-26T06:17:39.530Z,17.57
2022-11-26T06:22:47.293Z,18.17
2022-11-26T06:27:53.563Z,16.83
2022-11-26T06:32:58.470Z,17.40
2022-11-26T06:38:06.138Z,18.70
2022-11-26T06:43:11.080Z,16.73
2022-11-26T06:48:16.020Z,17.40
2022-11-26T06:53:23.642Z,15.97
2022-11-26T06:58:28.569Z,15.30
2022-11-26T07:03:33.629Z,14.60
2022-11-26T07:08:41.382Z,14.87
2022-11-26T07:13:46.583Z,15.70
2022-11-26T07:18:56.414Z,16.53
2022-11-26T07:24:08.748Z,17.63
2022-11-26T07:29:13.716Z,18.33
2022-11-26T07:34:18.646Z,18.57
2022-11-26T07:39:26.461Z,19.20
2022-11-26T07:44:31.371Z,18.77
2022-11-26T07:49:37.068Z,19.43
2022-11-26T07:54:46.044Z,19.27
2022-11-26T07:59:51.885Z,18.70
2022-11-26T08:04:57.123Z,20.53
2022-11-26T08:10:05.122Z,22.20
2022-11-26T08:15:11.478Z,20.00
2022-11-26T08:20:16.787Z,19.17
2022-11-26T08:25:24.624Z,19.70
2022-11-26T08:30:29.828Z,19.43
2022-11-26T08:35:59.420Z,19.27
2022-11-26T08:41:05.707Z,17.40
2022-11-26T08:46:11.023Z,14.53
2022-11-26T08:51:17.501Z,13.90
2022-11-26T08:56:25.116Z,15.93
2022-11-26T09:01:33.107Z,14.47
2022-11-26T09:06:40.987Z,15.17
2022-11-26T09:11:51.117Z,15.63
2022-11-26T09:16:57.738Z,16.77
2022-11-26T09:22:03.318Z,15.03
2022-11-26T09:27:14.562Z,14.63
2022-11-26T09:32:25.374Z,15.43
2022-11-26T09:37:34.794Z,13.13
2022-11-26T09:42:51.688Z,11.63
2022-11-26T09:47:57.231Z,11.60
2022-11-26T09:53:05.199Z,12.00
2022-11-26T09:58:26.750Z,10.87
2022-11-26T10:03:34.758Z,10.03
2022-11-26T10:09:00.090Z,10.13
2022-11-26T10:14:17.223Z,10.70
2022-11-26T10:19:30.249Z,11.40
2022-11-26T10:24:38.958Z,9.57
2022-11-26T10:29:51.771Z,10.43
2022-11-26T10:34:59.415Z,10.33
2022-11-26T10:40:24.910Z,11.80
2022-11-26T10:45:44.671Z,11.23
2022-11-26T10:51:00.103Z,10.27
2022-11-26T10:56:10.018Z,10.20
2022-11-26T11:01:18.780Z,9.93
2022-11-26T11:06:31.058Z,10.27
2022-11-26T11:11:36.235Z,10.30
2022-11-26T11:16:47.367Z,10.57
2022-11-26T11:21:52.760Z,10.37
2022-11-26T11:27:00.349Z,9.13
2022-11-26T11:32:10.176Z,9.40
2022-11-26T11:37:18.537Z,7.97
2022-11-26T11:42:29.305Z,8.40
2022-11-26T11:47:40.295Z,7.53
2022-11-26T11:52:56.666Z,6.07
2022-11-26T11:58:20.607Z,6.20
2022-11-26T12:03:57.928Z,7.17
2022-11-26T12:09:14.264Z,5.80
2022-11-26T12:14:26.019Z,6.87
2022-11-26T12:19:42.355Z,6.80
2022-11-26T12:24:53.107Z,5.73
2022-11-26T12:30:02.810Z,7.37
2022-11-26T12:35:18.576Z,7.40
2022-11-26T12:40:35.060Z,8.17
2022-11-26T12:45:53.093Z,7.07
2022-11-26T12:51:06.553Z,6.53
2022-11-26T12:56:22.040Z,7.23
2022-11-26T13:01:28.495Z,7.43
2022-11-26T13:06:54.614Z,8.13
2022-11-26T13:12:07.657Z,6.53
2022-11-26T13:17:16.267Z,6.57
2022-11-26T13:22:47.304Z,7.07
2022-11-26T13:28:06.282Z,7.23
2022-11-26T13:34:01.343Z,8.37
2022-11-26T13:39:34.330Z,7.43
2022-11-26T13:45:09.271Z,6.87
2022-11-26T13:50:20.271Z,7.03
2022-11-26T13:55:34.460Z,7.23
2022-11-26T14:00:39.718Z,7.30
2022-11-26T14:06:09.639Z,6.27
2022-11-26T14:11:54.518Z,6.93
2022-11-26T14:17:16.073Z,6.03
2022-11-26T14:22:33.254Z,6.70
2022-11-26T14:27:44.437Z,7.00
2022-11-26T14:33:00.957Z,8.57
2022-11-26T14:38:08.569Z,6.73
2022-11-26T14:43:22.467Z,6.30
2022-11-26T14:48:30.213Z,6.60
2022-11-26T14:53:37.121Z,7.03
2022-11-26T14:58:47.650Z,6.77
2022-11-26T15:04:04.346Z,8.17
2022-11-26T15:09:17.696Z,9.50
2022-11-26T15:14:30.524Z,6.10
2022-11-26T15:19:39.956Z,6.13
2022-11-26T15:24:47.415Z,5.63
2022-11-26T15:29:55.100Z,6.07
2022-11-26T15:35:03.563Z,6.90
2022-11-26T15:40:21.887Z,7.77
2022-11-26T15:45:37.777Z,6.70
2022-11-26T15:50:42.825Z,8.20
2022-11-26T15:55:51.092Z,7.20
2022-11-26T16:01:01.413Z,6.83
2022-11-26T16:06:10.648Z,6.77
2022-11-26T16:11:24.651Z,5.50
2022-11-26T16:16:32.415Z,6.33
2022-11-26T16:21:40.930Z,6.60
2022-11-26T16:26:58.797Z,7.60
2022-11-26T16:32:06.864Z,8.43
2022-11-26T16:37:22.980Z,7.73
2022-11-26T16:42:27.894Z,7.93
2022-11-26T16:47:39.491Z,8.23
2022-11-26T16:52:45.659Z,8.37
2022-11-26T16:57:53.146Z,8.67
2022-11-26T17:03:00.785Z,9.00
2022-11-26T17:08:07.516Z,10.13
2022-11-26T17:13:12.512Z,8.93
2022-11-26T17:18:22.947Z,10.37
2022-11-26T17:23:28.563Z,12.33
2022-11-26T17:28:34.582Z,11.07
2022-11-26T17:33:42.417Z,10.50
2022-11-26T17:38:51.146Z,9.93
2022-11-26T17:43:56.200Z,9.90
2022-11-26T17:49:03.933Z,9.63
2022-11-26T17:54:09.634Z,9.13
2022-11-26T17:59:18.307Z,9.43
2022-11-26T18:04:28.049Z,9.20
2022-11-26T18:09:33.125Z,9.10
2022-11-26T18:14:43.290Z,9.40
2022-11-26T18:19:51.088Z,11.17
2022-11-26T18:24:57.696Z,9.97
2022-11-26T18:30:02.976Z,9.67
2022-11-26T18:35:14.425Z,8.63
2022-11-26T18:40:20.211Z,8.23
2022-11-26T18:45:28.080Z,9.87
2022-11-26T18:50:35.602Z,10.47
2022-11-26T18:55:42.957Z,11.80
2022-11-26T19:00:48.095Z,8.67
2022-11-26T19:05:56.138Z,8.60
2022-11-26T19:11:01.165Z,9.13
2022-11-26T19:16:16.511Z,10.13
2022-11-26T19:21:28.080Z,10.50
2022-11-26T19:26:33.059Z,10.70
2022-11-26T19:31:39.885Z,12.03
2022-11-26T19:36:48.963Z,10.57
2022-11-26T19:41:55.486Z,11.53
2022-11-26T19:47:00.779Z,9.43
2022-11-26T19:52:09.214Z,9.67
2022-11-26T19:57:14.242Z,9.97
2022-11-26T20:02:19.390Z,11.13
2022-11-26T20:07:27.045Z,10.87
2022-11-26T20:12:32.173Z,13.43
2022-11-26T20:17:37.204Z,11.80
2022-11-26T20:22:45.029Z,12.37
2022-11-26T20:27:51.432Z,13.13
2022-11-26T20:32:56.919Z,11.30
2022-11-26T20:38:05.235Z,11.17
2022-11-26T20:43:10.476Z,10.43
2022-11-26T20:48:18.908Z,10.03
2022-11-26T20:53:26.589Z,9.70
2022-11-26T20:58:32.262Z,10.23
2022-11-26T21:03:37.904Z,9.30
2022-11-26T21:08:47.498Z,9.40
2022-11-26T21:13:52.500Z,9.73
2022-11-26T21:18:58.477Z,9.90
2022-11-26T21:24:06.717Z,11.40
2022-11-26T21:29:11.939Z,11.87
2022-11-26T21:34:17.501Z,10.90
2022-11-26T21:39:25.133Z,10.67
2022-11-26T21:44:30.038Z,9.97
2022-11-26T21:49:34.938Z,11.03
2022-11-26T21:54:42.395Z,14.57
2022-11-26T21:59:48.676Z,12.73
2022-11-26T22:04:53.721Z,12.57
2022-11-26T22:10:01.679Z,11.63
2022-11-26T22:15:06.878Z,12.97
2022-11-26T22:20:13.203Z,12.33
2022-11-26T22:25:22.456Z,11.67
2022-11-26T22:30:27.415Z,12.07
2022-11-26T22:35:32.402Z,12.63
2022-11-26T22:40:40.290Z,11.70
2022-11-26T22:45:45.355Z,12.17
2022-11-26T22:50:53.610Z,12.43
2022-11-26T22:56:02.975Z,12.40
2022-11-26T23:01:10.227Z,12.43
2022-11-26T23:06:16.678Z,12.00
2022-11-26T23:11:26.766Z,13.83
2022-11-26T23:16:31.842Z,12.13
2022-11-26T23:21:39.918Z,12.60
2022-11-26T23:26:49.309Z,11.73
2022-11-26T23:31:54.434Z,13.20
2022-11-26T23:36:59.368Z,12.77
2022-11-26T23:42:07.307Z,11.93
2022-11-26T23:47:12.234Z,11.03
2022-11-26T23:52:17.134Z,11.70
2022-11-26T23:57:24.524Z,12.17
